createdAt,value
2018-09-24T00:01:40.482Z,74.75
2018-09-24T00:04:11.468Z,75.06
2018-09-24T00:06:42.506Z,74.29
2018-09-24T00:09:13.488Z,75.00
2018-09-24T00:11:44.490Z,74.72
2018-09-24T00:14:15.499Z,74.79
2018-09-24T00:16:46.489Z,75.34
2018-09-24T00:19:17.495Z,74.81
2018-09-24T00:21:48.469Z,75.25
2018-09-24T00:24:19.440Z,75.72
2018-09-24T00:26:50.848Z,74.87
2018-09-24T00:29:21.569Z,75.32
2018-09-24T00:31:52.471Z,74.89
2018-09-24T00:34:23.437Z,74.93
2018-09-24T00:36:54.456Z,74.98
2018-09-24T00:39:25.463Z,74.44
2018-09-24T00:41:56.501Z,74.90
2018-09-24T00:44:27.454Z,75.15
2018-09-24T00:46:58.483Z,75.30
2018-09-24T00:49:29.505Z,74.47
2018-09-24T00:52:00.498Z,74.80
2018-09-24T00:54:31.453Z,74.86
2018-09-24T00:57:02.497Z,73.57
2018-09-24T00:59:33.465Z,73.92
2018-09-24T01:02:04.470Z,74.76
2018-09-24T01:04:35.456Z,74.03
2018-09-24T01:07:06.518Z,74.47
2018-09-24T01:09:37.468Z,74.78
2018-09-24T01:12:08.485Z,73.61
2018-09-24T01:14:39.476Z,73.65
2018-09-24T01:17:10.488Z,73.82
2018-09-24T01:19:41.842Z,74.83
2018-09-24T01:22:12.606Z,73.52
2018-09-24T01:24:43.464Z,73.01
2018-09-24T01:27:14.480Z,72.92
2018-09-24T01:29:45.450Z,73.67
2018-09-24T01:32:16.457Z,73.65
2018-09-24T01:34:47.443Z,73.31
2018-09-24T01:37:18.463Z,73.25
2018-09-24T01:39:49.455Z,73.64
2018-09-24T01:42:20.813Z,72.85
2018-09-24T01:44:51.569Z,74.04
2018-09-24T01:47:22.477Z,73.01
2018-09-24T01:49:53.460Z,74.46
2018-09-24T01:52:24.526Z,74.24
2018-09-24T01:54:55.462Z,74.28
2018-09-24T01:57:26.485Z,74.66
2018-09-24T01:59:58.399Z,74.09
2018-09-24T02:02:29.468Z,75.64
2018-09-24T02:05:00.478Z,74.60
2018-09-24T02:07:31.457Z,73.84
2018-09-24T02:10:03.233Z,73.81
2018-09-24T02:12:34.353Z,74.02
2018-09-24T02:15:05.365Z,73.87
2018-09-24T02:17:36.358Z,73.84
2018-09-24T02:20:07.367Z,74.11
2018-09-24T02:22:38.354Z,73.52
2018-09-24T02:25:09.358Z,72.90
2018-09-24T02:27:40.350Z,73.28
2018-09-24T02:30:14.602Z,72.82
2018-09-24T02:32:45.464Z,72.10
2018-09-24T02:35:16.601Z,72.11
2018-09-24T02:37:47.476Z,73.01
2018-09-24T02:40:21.429Z,73.48
2018-09-24T02:42:52.513Z,73.71
2018-09-24T02:45:23.437Z,74.10
2018-09-24T02:47:54.430Z,73.47
2018-09-24T02:50:37.347Z,73.71
2018-09-24T02:53:10.006Z,73.85
2018-09-24T02:55:41.189Z,74.10
2018-09-24T02:58:19.520Z,74.60
2018-09-24T03:00:51.021Z,74.13
2018-09-24T03:03:22.200Z,74.51
2018-09-24T03:05:53.310Z,75.04
2018-09-24T03:08:30.733Z,75.19
2018-09-24T03:11:07.392Z,75.03
2018-09-24T03:13:38.492Z,74.95
2018-09-24T03:16:09.521Z,75.12
2018-09-24T03:18:40.506Z,75.89
2018-09-24T03:21:11.442Z,75.64
2018-09-24T03:23:42.461Z,75.75
2018-09-24T03:26:13.469Z,75.98
2018-09-24T03:28:44.437Z,76.33
2018-09-24T03:31:15.425Z,76.29
2018-09-24T03:33:46.426Z,76.22
2018-09-24T03:36:17.423Z,76.48
2018-09-24T03:38:48.410Z,76.39
2018-09-24T03:41:19.406Z,76.02
2018-09-24T03:43:50.392Z,75.94
2018-09-24T03:46:21.409Z,76.46
2018-09-24T03:48:52.426Z,76.28
2018-09-24T03:51:23.405Z,76.64
2018-09-24T03:53:54.425Z,76.14
2018-09-24T03:56:25.425Z,76.45
2018-09-24T03:58:56.521Z,76.91
2018-09-24T04:01:27.461Z,76.67
2018-09-24T04:04:03.585Z,76.25
2018-09-24T04:06:39.734Z,76.57
2018-09-24T04:10:47.651Z,76.00
2018-09-24T04:13:23.607Z,76.23
2018-09-24T04:15:59.577Z,76.03
2018-09-24T04:18:35.504Z,76.65
2018-09-24T04:21:11.538Z,76.47
2018-09-24T04:23:47.592Z,76.14
2018-09-24T04:26:23.815Z,76.40
2018-09-24T04:28:59.770Z,76.56
2018-09-24T04:31:35.741Z,76.68
2018-09-24T04:34:11.617Z,76.67
2018-09-24T04:36:47.717Z,76.78
2018-09-24T04:39:23.594Z,77.08
2018-09-24T04:41:59.672Z,76.96
2018-09-24T04:44:35.831Z,77.37
2018-09-24T04:47:11.819Z,77.27
2018-09-24T04:49:47.805Z,77.33
2018-09-24T04:52:23.651Z,77.55
2018-09-24T04:54:59.606Z,77.31
2018-09-24T04:57:35.674Z,77.55
2018-09-24T05:00:12.281Z,77.03
2018-09-24T05:02:47.520Z,77.05
2018-09-24T05:05:23.640Z,77.68
2018-09-24T05:07:59.709Z,77.40
2018-09-24T05:10:35.758Z,77.21
2018-09-24T05:13:11.734Z,77.16
2018-09-24T05:15:48.000Z,76.94
2018-09-24T05:18:24.277Z,77.19
2018-09-24T05:21:00.321Z,76.70
2018-09-24T05:23:36.429Z,76.90
2018-09-24T05:26:12.741Z,77.31
2018-09-24T05:28:48.589Z,77.09
2018-09-24T05:31:24.871Z,77.42
2018-09-24T05:34:00.895Z,77.43
2018-09-24T05:36:37.009Z,77.30
2018-09-24T05:39:15.639Z,76.93
2018-09-24T05:41:51.601Z,76.86
2018-09-24T05:44:28.049Z,77.10
2018-09-24T05:47:04.371Z,77.28
2018-09-24T05:49:40.596Z,77.04
2018-09-24T05:52:16.611Z,76.92
2018-09-24T05:54:52.816Z,77.35
2018-09-24T05:57:28.729Z,76.80
2018-09-24T06:00:04.678Z,77.23
2018-09-24T06:02:40.673Z,76.93
2018-09-24T06:05:16.594Z,76.75
2018-09-24T06:07:52.638Z,76.60
2018-09-24T06:10:28.585Z,76.83
2018-09-24T06:13:04.709Z,76.23
2018-09-24T06:15:40.605Z,76.38
2018-09-24T06:18:16.616Z,76.57
2018-09-24T06:20:52.684Z,75.98
2018-09-24T06:23:28.789Z,76.00
2018-09-24T06:26:04.600Z,76.37
2018-09-24T06:28:40.699Z,76.13
2018-09-24T06:31:17.279Z,75.90
2018-09-24T06:33:53.376Z,75.43
2018-09-24T06:36:29.397Z,75.78
2018-09-24T06:39:05.710Z,75.35
2018-09-24T06:41:41.734Z,75.14
2018-09-24T06:44:17.661Z,75.08
2018-09-24T06:46:53.776Z,74.97
2018-09-24T06:49:29.750Z,74.63
2018-09-24T06:52:05.607Z,75.87
2018-09-24T06:54:41.582Z,73.50
2018-09-24T06:57:17.553Z,73.34
2018-09-24T06:59:55.698Z,72.79
2018-09-24T07:02:31.619Z,72.13
2018-09-24T07:05:07.648Z,71.27
2018-09-24T07:07:43.676Z,70.39
2018-09-24T07:10:19.618Z,71.19
2018-09-24T07:12:55.788Z,69.69
2018-09-24T07:15:32.018Z,69.76
2018-09-24T07:18:08.227Z,69.05
2018-09-24T07:20:44.405Z,68.59
2018-09-24T07:23:20.584Z,68.69
2018-09-24T07:25:56.669Z,68.12
2018-09-24T07:28:32.548Z,68.01
2018-09-24T07:31:08.548Z,67.35
2018-09-24T07:33:44.528Z,67.29
2018-09-24T07:36:20.650Z,67.12
2018-09-24T07:38:56.653Z,66.27
2018-09-24T07:41:32.748Z,65.95
2018-09-24T07:44:08.696Z,66.23
2018-09-24T07:46:44.688Z,65.89
2018-09-24T07:49:20.518Z,65.74
2018-09-24T07:51:56.639Z,64.98
2018-09-24T07:54:32.660Z,64.02
2018-09-24T07:57:08.713Z,64.35
2018-09-24T07:59:44.734Z,63.96
2018-09-24T08:02:20.789Z,64.06
2018-09-24T08:04:56.572Z,62.89
2018-09-24T08:07:32.649Z,62.99
2018-09-24T08:10:08.500Z,60.91
2018-09-24T08:12:45.316Z,60.89
2018-09-24T08:15:21.686Z,58.76
2018-09-24T08:17:57.679Z,57.92
2018-09-24T08:20:33.644Z,57.75
2018-09-24T08:23:09.672Z,53.81
2018-09-24T08:25:45.673Z,53.95
2018-09-24T08:28:21.708Z,52.71
2018-09-24T08:30:57.680Z,50.53
2018-09-24T08:33:33.629Z,49.82
2018-09-24T08:36:09.621Z,49.58
2018-09-24T08:38:45.549Z,50.33
2018-09-24T08:41:21.670Z,48.97
2018-09-24T08:43:57.758Z,51.14
2018-09-24T08:46:33.729Z,48.71
2018-09-24T08:49:09.713Z,48.78
2018-09-24T08:51:45.655Z,48.79
2018-09-24T08:54:21.621Z,47.76
2018-09-24T08:56:57.820Z,45.50
2018-09-24T08:59:33.728Z,46.15
2018-09-24T09:02:09.799Z,46.79
2018-09-24T09:04:46.023Z,48.63
2018-09-24T09:07:22.297Z,47.43
2018-09-24T09:09:58.334Z,46.88
2018-09-24T09:12:34.331Z,47.01
2018-09-24T09:15:10.341Z,45.91
2018-09-24T09:17:46.401Z,46.79
2018-09-24T09:20:22.542Z,47.83
2018-09-24T09:22:58.620Z,47.69
2018-09-24T09:25:34.626Z,47.65
2018-09-24T09:28:10.702Z,49.29
2018-09-24T09:30:46.729Z,47.87
2018-09-24T09:33:22.730Z,49.17
2018-09-24T09:35:58.583Z,47.96
2018-09-24T09:38:34.610Z,47.86
2018-09-24T09:41:10.689Z,47.77
2018-09-24T09:43:46.686Z,48.41
2018-09-24T09:46:22.602Z,49.34
2018-09-24T09:48:58.553Z,49.50
2018-09-24T09:51:34.749Z,49.96
2018-09-24T09:54:10.573Z,50.36
2018-09-24T09:56:46.804Z,48.73
2018-09-24T09:59:22.815Z,47.48
2018-09-24T10:01:58.722Z,46.97
2018-09-24T10:04:34.651Z,47.93
2018-09-24T10:07:10.631Z,48.09
2018-09-24T10:09:46.689Z,49.38
2018-09-24T10:12:22.798Z,48.18
2018-09-24T10:14:58.714Z,46.46
2018-09-24T10:17:34.733Z,47.14
2018-09-24T10:20:10.522Z,47.19
2018-09-24T10:22:46.545Z,46.22
2018-09-24T10:25:22.594Z,47.08
2018-09-24T10:27:58.506Z,46.09
2018-09-24T10:30:34.449Z,45.23
2018-09-24T10:33:10.702Z,45.38
2018-09-24T10:35:46.713Z,46.05
2018-09-24T10:38:22.595Z,46.10
2018-09-24T10:40:58.738Z,45.84
2018-09-24T10:43:34.470Z,45.68
2018-09-24T10:46:10.744Z,45.86
2018-09-24T10:48:46.775Z,45.47
2018-09-24T10:51:22.669Z,45.15
2018-09-24T10:53:58.719Z,45.32
2018-09-24T10:56:34.738Z,43.34
2018-09-24T10:59:10.477Z,43.17
2018-09-24T11:01:46.613Z,45.23
2018-09-24T11:04:22.607Z,45.11
2018-09-24T11:06:58.592Z,45.10
2018-09-24T11:09:34.553Z,45.38
2018-09-24T11:12:10.633Z,45.44
2018-09-24T11:14:46.713Z,44.89
2018-09-24T11:17:22.946Z,42.35
2018-09-24T11:19:58.646Z,42.23
2018-09-24T11:22:34.602Z,42.60
2018-09-24T11:25:10.583Z,42.47
2018-09-24T11:27:46.676Z,41.02
2018-09-24T11:30:22.709Z,39.44
2018-09-24T11:32:58.641Z,39.21
2018-09-24T11:35:34.686Z,37.17
2018-09-24T11:38:10.810Z,36.70
2018-09-24T11:40:46.813Z,34.79
2018-09-24T11:43:22.733Z,36.18
2018-09-24T11:45:58.614Z,34.85
2018-09-24T11:48:34.722Z,34.88
2018-09-24T11:51:10.561Z,35.70
2018-09-24T11:53:46.592Z,36.23
2018-09-24T11:56:22.597Z,36.79
2018-09-24T11:58:58.514Z,36.08
2018-09-24T12:01:34.610Z,34.45
2018-09-24T12:04:10.741Z,34.09
2018-09-24T12:06:46.619Z,34.83
2018-09-24T12:09:22.593Z,32.36
2018-09-24T12:11:58.597Z,32.98
2018-09-24T12:14:35.013Z,32.17
2018-09-24T12:17:11.350Z,33.51
2018-09-24T12:19:47.333Z,33.63
2018-09-24T12:22:23.393Z,34.96
2018-09-24T12:24:59.694Z,35.44
2018-09-24T12:27:35.617Z,34.29
2018-09-24T12:30:11.605Z,32.63
2018-09-24T12:32:47.749Z,32.71
2018-09-24T12:35:23.766Z,34.39
2018-09-24T12:37:59.793Z,34.80
2018-09-24T12:40:35.721Z,33.90
2018-09-24T12:43:11.635Z,32.53
2018-09-24T12:45:47.739Z,32.59
2018-09-24T12:48:23.771Z,34.11
2018-09-24T12:50:59.754Z,31.71
2018-09-24T12:53:35.678Z,33.51
2018-09-24T12:56:11.613Z,33.07
2018-09-24T12:58:47.537Z,33.60
2018-09-24T13:01:23.614Z,32.97
2018-09-24T13:03:59.848Z,33.29
2018-09-24T13:06:36.290Z,32.32
2018-09-24T13:09:14.338Z,30.68
2018-09-24T13:11:50.454Z,31.61
2018-09-24T13:14:26.521Z,33.43
2018-09-24T13:17:02.634Z,32.41
2018-09-24T13:19:38.618Z,33.65
2018-09-24T13:22:14.625Z,32.59
2018-09-24T13:24:50.557Z,33.55
2018-09-24T13:27:26.486Z,34.66
2018-09-24T13:30:02.643Z,34.18
2018-09-24T13:32:38.675Z,34.75
2018-09-24T13:35:14.597Z,33.95
2018-09-24T13:37:50.751Z,32.65
2018-09-24T13:40:26.590Z,35.59
2018-09-24T13:43:02.548Z,34.65
2018-09-24T13:45:38.460Z,31.77
2018-09-24T13:48:14.554Z,33.42
2018-09-24T13:50:50.631Z,34.19
2018-09-24T13:53:26.813Z,33.21
2018-09-24T13:56:02.807Z,32.45
2018-09-24T13:58:38.854Z,33.09
2018-09-24T14:01:14.978Z,33.88
2018-09-24T14:03:51.313Z,33.49
2018-09-24T14:06:27.373Z,32.91
2018-09-24T14:09:03.557Z,32.67
2018-09-24T14:11:39.553Z,33.49
2018-09-24T14:14:15.553Z,34.28
2018-09-24T14:16:51.740Z,34.94
2018-09-24T14:20:43.663Z,35.87
2018-09-24T14:23:19.753Z,37.12
2018-09-24T14:25:56.372Z,36.84
2018-09-24T14:28:32.828Z,38.67
2018-09-24T14:31:08.693Z,39.80
2018-09-24T14:33:44.661Z,40.13
2018-09-24T14:36:20.865Z,40.83
2018-09-24T14:38:56.702Z,41.43
2018-09-24T14:41:32.614Z,41.80
2018-09-24T14:44:09.070Z,41.96
2018-09-24T14:46:45.521Z,42.88
2018-09-24T14:49:22.284Z,42.10
2018-09-24T14:51:57.659Z,43.05
2018-09-24T14:54:33.768Z,43.35
2018-09-24T14:57:09.729Z,44.47
2018-09-24T14:59:45.607Z,44.41
2018-09-24T15:02:21.721Z,43.75
2018-09-24T15:04:57.583Z,44.11
2018-09-24T15:07:33.599Z,44.04
2018-09-24T15:10:09.602Z,44.06
2018-09-24T15:12:45.486Z,43.66
2018-09-24T15:15:21.582Z,43.76
2018-09-24T15:17:57.667Z,43.65
2018-09-24T15:20:33.498Z,44.45
2018-09-24T15:23:09.627Z,44.80
2018-09-24T15:25:45.588Z,45.12
2018-09-24T15:28:21.734Z,45.41
2018-09-24T15:30:57.721Z,44.20
2018-09-24T15:33:33.778Z,44.41
2018-09-24T15:36:09.691Z,42.19
2018-09-24T15:38:45.741Z,43.26
2018-09-24T15:41:21.814Z,43.15
2018-09-24T15:43:57.664Z,42.61
2018-09-24T15:46:33.631Z,42.98
2018-09-24T15:49:09.502Z,43.67
2018-09-24T15:51:45.779Z,43.60
2018-09-24T15:54:21.689Z,43.58
2018-09-24T15:56:57.797Z,43.71
2018-09-24T15:59:33.762Z,43.58
2018-09-24T16:02:09.783Z,45.11
2018-09-24T16:04:45.820Z,45.16
2018-09-24T16:07:22.196Z,45.94
2018-09-24T16:09:58.314Z,46.44
2018-09-24T16:12:34.489Z,45.60
2018-09-24T16:15:11.412Z,46.33
2018-09-24T16:17:47.549Z,46.94
2018-09-24T16:20:23.597Z,46.79
2018-09-24T16:22:59.549Z,46.34
2018-09-24T16:25:35.771Z,47.20
2018-09-24T16:28:11.789Z,46.58
2018-09-24T16:30:47.645Z,46.58
2018-09-24T16:33:23.751Z,47.44
2018-09-24T16:35:59.689Z,47.83
2018-09-24T16:38:35.721Z,48.01
2018-09-24T16:41:11.852Z,48.29
2018-09-24T16:43:47.728Z,48.65
2018-09-24T16:46:24.015Z,49.19
2018-09-24T16:49:00.321Z,49.68
2018-09-24T16:51:36.509Z,49.92
2018-09-24T16:54:12.720Z,50.69
2018-09-24T16:56:48.544Z,50.06
2018-09-24T16:59:24.669Z,51.02
2018-09-24T17:02:00.603Z,50.87
2018-09-24T17:04:36.609Z,51.38
2018-09-24T17:07:12.718Z,51.40
2018-09-24T17:09:48.624Z,51.78
2018-09-24T17:12:24.714Z,52.15
2018-09-24T17:15:00.768Z,52.69
2018-09-24T17:17:36.701Z,53.04
2018-09-24T17:20:12.833Z,54.20
2018-09-24T17:22:48.777Z,54.25
2018-09-24T17:25:24.750Z,55.74
2018-09-24T17:28:00.724Z,55.89
2018-09-24T17:30:36.938Z,55.83
2018-09-24T17:33:13.230Z,56.19
2018-09-24T17:35:49.349Z,57.18
2018-09-24T17:38:25.316Z,56.66
2018-09-24T17:41:01.317Z,56.34
2018-09-24T17:43:37.313Z,55.83
2018-09-24T17:46:13.463Z,56.60
2018-09-24T17:48:49.674Z,56.68
2018-09-24T17:51:25.694Z,55.77
2018-09-24T17:54:01.597Z,57.00
2018-09-24T17:56:37.669Z,56.64
2018-09-24T17:59:13.767Z,55.99
2018-09-24T18:01:49.700Z,56.14
2018-09-24T18:04:25.606Z,56.46
2018-09-24T18:07:01.465Z,55.95
2018-09-24T18:09:37.789Z,56.19
2018-09-24T18:13:18.016Z,55.95
2018-09-24T18:15:54.310Z,56.14
2018-09-24T18:18:30.504Z,56.48
2018-09-24T18:21:06.676Z,56.06
2018-09-24T18:23:42.618Z,56.61
2018-09-24T18:26:18.560Z,56.58
2018-09-24T18:28:54.661Z,56.92
2018-09-24T18:31:30.626Z,56.50
2018-09-24T18:34:06.611Z,56.41
2018-09-24T18:36:42.644Z,56.53
2018-09-24T18:39:18.779Z,56.57
2018-09-24T18:41:54.841Z,56.58
2018-09-24T18:44:30.833Z,56.48
2018-09-24T18:47:06.578Z,56.83
2018-09-24T18:49:42.651Z,56.66
2018-09-24T18:52:18.601Z,58.02
2018-09-24T18:54:54.606Z,58.18
2018-09-24T18:57:30.733Z,57.89
2018-09-24T19:00:06.661Z,57.96
2018-09-24T19:02:42.751Z,58.23
2018-09-24T19:05:18.512Z,59.27
2018-09-24T19:07:54.707Z,59.07
2018-09-24T19:10:30.698Z,60.16
2018-09-24T19:13:06.745Z,59.99
2018-09-24T19:15:42.757Z,59.48
2018-09-24T19:18:18.744Z,59.97
2018-09-24T19:20:54.630Z,60.27
2018-09-24T19:23:30.587Z,60.38
2018-09-24T19:26:06.701Z,61.23
2018-09-24T19:28:42.647Z,60.95
2018-09-24T19:31:18.622Z,61.09
2018-09-24T19:33:54.597Z,62.17
2018-09-24T19:36:30.534Z,61.71
2018-09-24T19:39:06.752Z,61.49
2018-09-24T19:41:42.548Z,61.33
2018-09-24T19:44:18.452Z,61.43
2018-09-24T19:46:54.558Z,61.41
2018-09-24T19:49:31.750Z,62.03
2018-09-24T19:52:07.645Z,62.25
2018-09-24T19:54:43.815Z,61.10
2018-09-24T19:57:19.671Z,61.40
2018-09-24T19:59:55.693Z,60.77
2018-09-24T20:02:31.986Z,60.77
2018-09-24T20:05:08.388Z,60.39
2018-09-24T20:07:44.440Z,61.12
2018-09-24T20:10:21.611Z,61.02
2018-09-24T20:12:57.721Z,60.47
2018-09-24T20:15:33.812Z,60.38
2018-09-24T20:18:10.230Z,60.96
2018-09-24T20:20:46.325Z,60.91
2018-09-24T20:23:22.361Z,60.62
2018-09-24T20:25:58.326Z,61.40
2018-09-24T20:28:34.521Z,61.08
2018-09-24T20:31:10.635Z,61.07
2018-09-24T20:33:46.515Z,60.86
2018-09-24T20:36:22.485Z,60.87
2018-09-24T20:38:58.721Z,61.27
2018-09-24T20:41:34.561Z,60.52
2018-09-24T20:44:10.785Z,60.98
2018-09-24T20:46:46.910Z,61.33
2018-09-24T20:49:23.234Z,61.40
2018-09-24T20:51:59.473Z,60.58
2018-09-24T20:54:36.734Z,60.89
2018-09-24T20:57:12.985Z,61.02
2018-09-24T20:59:49.514Z,60.77
2018-09-24T21:02:25.702Z,61.46
2018-09-24T21:05:01.602Z,61.80
2018-09-24T21:07:37.664Z,61.46
2018-09-24T21:10:13.694Z,60.88
2018-09-24T21:12:49.754Z,60.02
2018-09-24T21:15:25.818Z,59.87
2018-09-24T21:18:02.019Z,59.56
2018-09-24T21:21:11.742Z,60.03
2018-09-24T21:23:48.691Z,60.12
2018-09-24T21:26:25.709Z,60.64
2018-09-24T21:29:02.517Z,60.82
2018-09-24T21:31:39.744Z,61.19
2018-09-24T21:34:16.612Z,61.17
2018-09-24T21:36:53.517Z,60.81
2018-09-24T21:39:30.618Z,60.91
2018-09-24T21:42:07.641Z,61.47
2018-09-24T21:44:44.711Z,61.50
2018-09-24T21:47:21.604Z,61.38
2018-09-24T21:49:58.736Z,61.66
2018-09-24T21:52:35.539Z,61.33
2018-09-24T21:55:12.597Z,61.13
2018-09-24T21:57:49.668Z,61.64
2018-09-24T22:00:26.580Z,61.81
2018-09-24T22:03:03.642Z,62.14
2018-09-24T22:05:40.757Z,61.98
2018-09-24T22:08:17.766Z,62.42
2018-09-24T22:10:54.585Z,62.53
2018-09-24T22:13:31.801Z,63.00
2018-09-24T22:16:08.567Z,62.79
2018-09-24T22:18:45.755Z,62.64
2018-09-24T22:21:22.776Z,62.55
2018-09-24T22:23:59.673Z,62.94
2018-09-24T22:26:36.705Z,63.37
2018-09-24T22:29:13.844Z,63.28
2018-09-24T22:31:50.587Z,63.45
2018-09-24T22:34:27.770Z,62.37
2018-09-24T22:37:04.766Z,62.86
2018-09-24T22:39:41.704Z,63.27
2018-09-24T22:42:18.618Z,63.30
2018-09-24T22:44:55.594Z,63.69
2018-09-24T22:47:32.538Z,63.46
2018-09-24T22:50:09.541Z,64.14
2018-09-24T22:52:46.664Z,63.75
2018-09-24T22:55:23.757Z,64.07
2018-09-24T22:58:00.741Z,64.32
2018-09-24T23:00:37.853Z,64.28
2018-09-24T23:03:15.230Z,64.78
2018-09-24T23:05:52.311Z,65.08
2018-09-24T23:08:29.527Z,64.48
2018-09-24T23:11:12.365Z,64.59
2018-09-24T23:13:49.400Z,64.96
2018-09-24T23:16:26.533Z,65.43
2018-09-24T23:19:03.685Z,64.64
2018-09-24T23:21:40.821Z,64.95
2018-09-24T23:24:17.698Z,65.23
2018-09-24T23:26:54.528Z,65.42
2018-09-24T23:29:31.597Z,65.55
2018-09-24T23:32:08.560Z,65.69
2018-09-24T23:34:45.715Z,65.79
2018-09-24T23:37:22.741Z,66.14
2018-09-24T23:39:59.473Z,66.56
2018-09-24T23:42:36.533Z,66.95
2018-09-24T23:45:13.653Z,67.00
2018-09-24T23:47:50.631Z,67.57
2018-09-24T23:50:27.698Z,67.54
2018-09-24T23:53:04.572Z,67.88
2018-09-24T23:55:41.758Z,67.93
2018-09-24T23:58:18.722Z,68.36
